createdAt,value
2018-09-14T00:01:40.461Z,101496.52
2018-09-14T00:04:11.149Z,101503.00
2018-09-14T00:06:41.384Z,101500.58
2018-09-14T00:09:13.371Z,101502.28
2018-09-14T00:11:44.407Z,101498.82
2018-09-14T00:14:14.874Z,101495.21
2018-09-14T00:16:45.367Z,101495.05
2018-09-14T00:19:15.932Z,101492.75
2018-09-14T00:21:46.254Z,101490.33
2018-09-14T00:24:16.675Z,101491.22
2018-09-14T00:26:47.104Z,101491.22
2018-09-14T00:29:17.537Z,101485.55
2018-09-14T00:31:48.142Z,101489.22
2018-09-14T00:34:18.597Z,101489.14
2018-09-14T00:36:49.001Z,101488.20
2018-09-14T00:39:19.327Z,101486.44
2018-09-14T00:41:49.708Z,101496.38
2018-09-14T00:44:20.144Z,101496.70
2018-09-14T00:46:50.586Z,101503.86
2018-09-14T00:49:20.908Z,101501.09
2018-09-14T00:51:51.283Z,101503.50
2018-09-14T00:54:21.865Z,101501.94
2018-09-14T00:56:52.164Z,101504.16
2018-09-14T00:59:22.549Z,101502.51
2018-09-14T01:01:52.919Z,101504.18
2018-09-14T01:04:23.659Z,101509.34
2018-09-14T01:06:54.376Z,101505.50
2018-09-14T01:09:25.643Z,101509.37
2018-09-14T01:11:57.512Z,101504.16
2018-09-14T01:14:29.012Z,101502.33
2018-09-14T01:16:59.605Z,101503.83
2018-09-14T01:19:30.002Z,101505.23
2018-09-14T01:22:00.412Z,101498.52
2018-09-14T01:24:30.903Z,101499.59
2018-09-14T01:27:01.335Z,101494.05
2018-09-14T01:29:31.764Z,101492.66
2018-09-14T01:32:02.324Z,101497.00
2018-09-14T01:34:32.816Z,101496.23
2018-09-14T01:37:03.195Z,101498.88
2018-09-14T01:39:33.546Z,101493.34
2018-09-14T01:42:04.093Z,101495.55
2018-09-14T01:44:34.430Z,101487.37
2018-09-14T01:47:04.798Z,101490.34
2018-09-14T01:49:35.059Z,101481.73
2018-09-14T01:52:05.568Z,101481.61
2018-09-14T01:54:36.028Z,101480.02
2018-09-14T01:57:06.649Z,101473.38
2018-09-14T01:59:37.124Z,101473.53
2018-09-14T02:02:07.630Z,101472.72
2018-09-14T02:04:38.087Z,101469.02
2018-09-14T02:07:08.539Z,101470.20
2018-09-14T02:09:38.960Z,101474.92
2018-09-14T02:12:09.624Z,101474.14
2018-09-14T02:14:40.012Z,101470.15
2018-09-14T02:17:10.421Z,101472.03
2018-09-14T02:19:40.761Z,101473.82
2018-09-14T02:22:11.222Z,101471.64
2018-09-14T02:24:41.620Z,101471.94
2018-09-14T02:27:12.210Z,101467.64
2018-09-14T02:29:42.711Z,101470.61
2018-09-14T02:32:12.955Z,101469.05
2018-09-14T02:34:43.343Z,101463.47
2018-09-14T02:37:13.932Z,101462.81
2018-09-14T02:39:44.531Z,101466.75
2018-09-14T02:42:14.813Z,101462.27
2018-09-14T02:44:45.060Z,101456.84
2018-09-14T02:47:15.679Z,101465.05
2018-09-14T02:49:46.043Z,101465.16
2018-09-14T02:52:16.756Z,101464.05
2018-09-14T02:54:47.296Z,101462.67
2018-09-14T02:57:17.787Z,101462.22
2018-09-14T02:59:48.392Z,101460.32
2018-09-14T03:02:18.525Z,101447.53
2018-09-14T03:04:48.924Z,101456.83
2018-09-14T03:07:19.404Z,101453.06
2018-09-14T03:09:49.696Z,101457.35
2018-09-14T03:12:19.903Z,101450.72
2018-09-14T03:14:50.274Z,101454.95
2018-09-14T03:17:20.557Z,101455.90
2018-09-14T03:19:50.963Z,101456.68
2018-09-14T03:22:21.444Z,101451.66
2018-09-14T03:24:51.772Z,101449.12
2018-09-14T03:27:22.022Z,101453.20
2018-09-14T03:29:52.321Z,101456.36
2018-09-14T03:32:22.882Z,101452.48
2018-09-14T03:34:53.424Z,101450.42
2018-09-14T03:37:23.622Z,101444.19
2018-09-14T03:39:54.423Z,101453.79
2018-09-14T03:42:25.008Z,101451.30
2018-09-14T03:44:55.351Z,101454.71
2018-09-14T03:47:25.807Z,101448.31
2018-09-14T03:49:56.408Z,101457.37
2018-09-14T03:52:26.734Z,101454.09
2018-09-14T03:54:56.941Z,101456.25
2018-09-14T03:57:27.314Z,101456.01
2018-09-14T03:59:57.825Z,101452.26
2018-09-14T04:02:28.228Z,101460.38
2018-09-14T04:04:58.565Z,101457.63
2018-09-14T04:07:29.065Z,101452.69
2018-09-14T04:09:59.449Z,101447.84
2018-09-14T04:12:29.954Z,101450.20
2018-09-14T04:15:00.419Z,101456.50
2018-09-14T04:17:30.704Z,101458.28
2018-09-14T04:20:01.521Z,101453.80
2018-09-14T04:22:31.956Z,101450.37
2018-09-14T04:25:02.341Z,101455.36
2018-09-14T04:27:32.748Z,101451.59
2018-09-14T04:30:03.088Z,101458.12
2018-09-14T04:32:33.364Z,101458.38
2018-09-14T04:35:03.843Z,101459.29
2018-09-14T04:37:34.216Z,101463.07
2018-09-14T04:40:04.900Z,101460.25
2018-09-14T04:42:35.379Z,101464.37
2018-09-14T04:45:06.452Z,101462.16
2018-09-14T04:47:36.842Z,101471.85
2018-09-14T04:50:08.076Z,101466.44
2018-09-14T04:52:39.378Z,101470.18
2018-09-14T04:55:09.708Z,101471.00
2018-09-14T04:57:40.196Z,101469.55
2018-09-14T05:00:10.685Z,101466.74
2018-09-14T05:02:41.166Z,101467.13
2018-09-14T05:05:11.659Z,101466.20
2018-09-14T05:07:42.144Z,101471.32
2018-09-14T05:10:12.704Z,101469.30
2018-09-14T05:12:43.196Z,101475.01
2018-09-14T05:15:13.812Z,101472.37
2018-09-14T05:17:44.008Z,101479.02
2018-09-14T05:20:14.462Z,101484.25
2018-09-14T05:22:45.021Z,101487.37
2018-09-14T05:25:15.513Z,101485.19
2018-09-14T05:27:45.820Z,101476.16
2018-09-14T05:30:16.335Z,101483.45
2018-09-14T05:32:47.932Z,101481.59
2018-09-14T05:35:18.303Z,101483.33
2018-09-14T05:37:48.655Z,101482.59
2018-09-14T05:40:19.145Z,101480.31
2018-09-14T05:42:49.535Z,101480.86
2018-09-14T05:45:20.018Z,101485.14
2018-09-14T05:47:50.428Z,101485.06
2018-09-14T05:50:20.935Z,101482.91
2018-09-14T05:52:51.524Z,101487.37
2018-09-14T05:55:22.117Z,101489.45
2018-09-14T05:57:52.585Z,101492.20
2018-09-14T06:00:22.972Z,101491.17
2018-09-14T06:02:53.472Z,101485.72
2018-09-14T06:05:42.817Z,101486.31
2018-09-14T06:08:13.257Z,101483.06
2018-09-14T06:10:43.817Z,101480.72
2018-09-14T06:13:14.316Z,101486.03
2018-09-14T06:15:44.893Z,101488.09
2018-09-14T06:18:15.456Z,101488.39
2018-09-14T06:20:46.001Z,101486.97
2018-09-14T06:23:16.685Z,101491.08
2018-09-14T06:25:47.072Z,101486.39
2018-09-14T06:28:17.544Z,101479.69
2018-09-14T06:30:48.153Z,101477.45
2018-09-14T06:33:18.555Z,101484.95
2018-09-14T06:35:49.563Z,101488.58
2018-09-14T06:38:20.177Z,101488.63
2018-09-14T06:40:51.213Z,101496.51
2018-09-14T06:43:21.716Z,101498.61
2018-09-14T06:45:52.129Z,101501.83
2018-09-14T06:48:22.455Z,101497.67
2018-09-14T06:50:52.913Z,101505.19
2018-09-14T06:53:23.599Z,101501.18
2018-09-14T06:55:54.006Z,101495.82
2018-09-14T06:58:25.503Z,101500.53
2018-09-14T07:00:55.943Z,101496.12
2018-09-14T07:03:26.331Z,101497.64
2018-09-14T07:05:56.945Z,101499.95
2018-09-14T07:08:27.459Z,101506.47
2018-09-14T07:10:57.904Z,101504.78
2018-09-14T07:13:28.293Z,101504.52
2018-09-14T07:15:58.716Z,101499.42
2018-09-14T07:18:29.080Z,101500.47
2018-09-14T07:20:59.466Z,101501.40
2018-09-14T07:23:30.426Z,101502.59
2018-09-14T07:26:00.985Z,101506.86
2018-09-14T07:28:31.568Z,101510.84
2018-09-14T07:31:01.928Z,101512.65
2018-09-14T07:33:32.184Z,101508.61
2018-09-14T07:36:02.771Z,101504.44
2018-09-14T07:38:33.247Z,101502.98
2018-09-14T07:41:03.586Z,101506.10
2018-09-14T07:43:33.991Z,101506.82
2018-09-14T07:46:04.417Z,101508.28
2018-09-14T07:48:34.727Z,101510.83
2018-09-14T07:51:05.288Z,101512.66
2018-09-14T07:53:35.877Z,101511.39
2018-09-14T07:56:06.379Z,101510.26
2018-09-14T07:58:36.882Z,101513.39
2018-09-14T08:01:07.201Z,101518.16
2018-09-14T08:03:37.615Z,101522.27
2018-09-14T08:06:08.199Z,101518.23
2018-09-14T08:08:38.791Z,101529.78
2018-09-14T08:11:09.135Z,101525.30
2018-09-14T08:13:39.634Z,101526.94
2018-09-14T08:16:09.964Z,101521.50
2018-09-14T08:18:40.364Z,101522.55
2018-09-14T08:21:10.910Z,101527.81
2018-09-14T08:23:41.549Z,101522.26
2018-09-14T08:26:11.923Z,101525.03
2018-09-14T08:28:42.292Z,101520.77
2018-09-14T08:31:12.651Z,101516.27
2018-09-14T08:33:43.109Z,101518.84
2018-09-14T08:36:13.547Z,101526.20
2018-09-14T08:38:44.083Z,101530.05
2018-09-14T08:41:14.902Z,101532.04
2018-09-14T08:43:45.248Z,101532.23
2018-09-14T08:46:15.584Z,101524.33
2018-09-14T08:48:46.003Z,101522.88
2018-09-14T08:51:21.423Z,101528.83
2018-09-14T08:53:51.847Z,101538.86
2018-09-14T08:56:22.235Z,101536.70
2018-09-14T08:59:00.892Z,101533.80
2018-09-14T09:01:31.445Z,101534.81
2018-09-14T09:04:05.616Z,101529.07
2018-09-14T09:06:35.957Z,101530.45
2018-09-14T09:09:09.488Z,101522.59
2018-09-14T09:11:40.044Z,101520.69
2018-09-14T09:14:10.255Z,101521.61
2018-09-14T09:16:40.877Z,101526.16
2018-09-14T09:19:11.216Z,101536.89
2018-09-14T09:21:41.597Z,101528.26
2018-09-14T09:24:12.181Z,101531.00
2018-09-14T09:26:42.668Z,101532.23
2018-09-14T09:29:13.052Z,101521.64
2018-09-14T09:31:43.496Z,101531.14
2018-09-14T09:37:49.214Z,101528.52
2018-09-14T09:40:19.772Z,101524.78
2018-09-14T09:42:50.238Z,101517.57
2018-09-14T09:45:20.600Z,101517.27
2018-09-14T09:47:51.064Z,101519.65
2018-09-14T09:50:21.468Z,101513.45
2018-09-14T09:52:51.904Z,101519.25
2018-09-14T09:55:22.128Z,101520.05
2018-09-14T09:58:17.023Z,101510.72
2018-09-14T10:00:52.541Z,101507.36
2018-09-14T10:03:27.973Z,101510.80
2018-09-14T10:06:03.447Z,101509.69
2018-09-14T10:08:33.893Z,101510.03
2018-09-14T10:11:04.947Z,101509.94
2018-09-14T10:13:35.342Z,101510.53
2018-09-14T10:16:06.061Z,101501.94
2018-09-14T10:18:36.400Z,101501.53
2018-09-14T10:21:07.269Z,101503.78
2018-09-14T10:23:37.753Z,101497.55
2018-09-14T10:26:08.381Z,101504.10
2018-09-14T10:28:39.024Z,101505.66
2018-09-14T10:31:09.675Z,101498.77
2018-09-14T10:33:39.992Z,101494.21
2018-09-14T10:36:10.880Z,101494.39
2018-09-14T10:38:41.419Z,101503.11
2018-09-14T10:41:13.377Z,101500.30
2018-09-14T10:43:43.596Z,101496.02
2018-09-14T10:46:14.040Z,101490.63
2018-09-14T10:48:44.373Z,101498.25
2018-09-14T10:51:14.937Z,101491.61
2018-09-14T10:53:45.523Z,101492.36
2018-09-14T10:56:15.886Z,101492.53
2018-09-14T10:58:46.428Z,101486.89
2018-09-14T11:01:17.325Z,101482.98
2018-09-14T11:03:47.705Z,101483.92
2018-09-14T11:06:18.132Z,101481.55
2018-09-14T11:08:49.201Z,101480.42
2018-09-14T11:11:19.700Z,101483.94
2018-09-14T11:13:50.022Z,101478.53
2018-09-14T11:16:20.576Z,101467.98
2018-09-14T11:18:51.218Z,101466.66
2018-09-14T11:21:21.484Z,101467.75
2018-09-14T11:23:51.948Z,101463.78
2018-09-14T11:26:22.249Z,101465.06
2018-09-14T11:28:52.639Z,101461.00
2018-09-14T11:31:28.939Z,101457.87
2018-09-14T11:33:59.717Z,101453.11
2018-09-14T11:36:30.288Z,101451.59
2018-09-14T11:39:00.773Z,101450.30
2018-09-14T11:41:31.280Z,101448.03
2018-09-14T11:44:01.544Z,101444.13
2018-09-14T11:46:31.993Z,101448.36
2018-09-14T11:49:02.334Z,101445.17
2018-09-14T11:51:32.991Z,101438.80
2018-09-14T11:54:03.700Z,101437.63
2018-09-14T11:56:34.977Z,101435.41
2018-09-14T11:59:05.453Z,101440.32
2018-09-14T12:01:36.161Z,101433.04
2018-09-14T12:04:06.741Z,101434.22
2018-09-14T12:06:37.400Z,101424.42
2018-09-14T12:09:11.402Z,101422.62
2018-09-14T12:11:42.385Z,101422.48
2018-09-14T12:14:12.898Z,101419.84
2018-09-14T12:16:43.387Z,101414.42
2018-09-14T12:19:13.896Z,101406.73
2018-09-14T12:21:44.233Z,101408.49
2018-09-14T12:24:14.668Z,101407.02
2018-09-14T12:26:45.089Z,101403.52
2018-09-14T12:29:15.379Z,101399.59
2018-09-14T12:31:45.877Z,101397.66
2018-09-14T12:34:16.356Z,101386.19
2018-09-14T12:36:47.661Z,101390.36
2018-09-14T12:39:18.149Z,101381.05
2018-09-14T12:41:48.711Z,101386.13
2018-09-14T12:44:19.004Z,101390.19
2018-09-14T12:46:49.350Z,101384.66
2018-09-14T12:49:19.761Z,101378.63
2018-09-14T12:51:50.223Z,101380.39
2018-09-14T12:54:20.531Z,101379.66
2018-09-14T12:56:50.980Z,101378.86
2018-09-14T12:59:21.256Z,101377.72
2018-09-14T13:01:51.916Z,101375.98
2018-09-14T13:04:22.876Z,101367.38
2018-09-14T13:06:53.322Z,101370.16
2018-09-14T13:09:23.746Z,101366.20
2018-09-14T13:11:53.970Z,101356.95
2018-09-14T13:14:24.766Z,101352.95
2018-09-14T13:19:24.310Z,101354.86
2018-09-14T13:21:54.880Z,101350.27
2018-09-14T13:24:25.576Z,101346.27
2018-09-14T13:26:56.008Z,101347.93
2018-09-14T13:29:26.405Z,101343.96
2018-09-14T13:31:56.832Z,101338.97
2018-09-14T13:34:28.454Z,101340.86
2018-09-14T13:36:58.956Z,101335.89
2018-09-14T13:39:29.312Z,101329.91
2018-09-14T13:41:59.636Z,101319.75
2018-09-14T13:44:30.071Z,101321.56
2018-09-14T13:47:01.340Z,101329.22
2018-09-14T13:49:31.822Z,101325.06
2018-09-14T13:52:02.139Z,101322.63
2018-09-14T13:54:32.479Z,101318.04
2018-09-14T13:57:03.462Z,101322.82
2018-09-14T13:59:33.952Z,101325.55
2018-09-14T14:02:04.376Z,101321.77
2018-09-14T14:04:35.162Z,101312.48
2018-09-14T14:07:05.611Z,101319.20
2018-09-14T14:09:36.222Z,101318.05
2018-09-14T14:12:06.520Z,101320.44
2018-09-14T14:14:36.861Z,101313.02
2018-09-14T14:17:07.558Z,101317.91
2018-09-14T14:19:38.038Z,101318.34
2018-09-14T14:22:08.646Z,101308.77
2018-09-14T14:24:39.096Z,101311.23
2018-09-14T14:27:09.558Z,101312.30
2018-09-14T14:29:39.924Z,101311.63
2018-09-14T14:32:10.391Z,101307.25
2018-09-14T14:34:40.746Z,101307.73
2018-09-14T14:37:11.049Z,101299.50
2018-09-14T14:39:41.496Z,101304.86
2018-09-14T14:42:11.821Z,101303.98
2018-09-14T14:44:42.291Z,101300.20
2018-09-14T14:47:12.569Z,101300.08
2018-09-14T14:49:42.913Z,101293.38
2018-09-14T14:52:13.231Z,101292.02
2018-09-14T14:54:43.688Z,101297.46
2018-09-14T14:57:14.005Z,101294.88
2018-09-14T15:02:44.730Z,101289.92
2018-09-14T15:05:15.108Z,101288.64
2018-09-14T15:07:45.463Z,101284.80
2018-09-14T15:10:16.116Z,101276.98
2018-09-14T15:12:46.476Z,101283.33
2018-09-14T15:15:16.721Z,101289.74
2018-09-14T15:17:47.035Z,101289.80
2018-09-14T15:20:17.556Z,101286.83
2018-09-14T15:22:47.872Z,101286.23
2018-09-14T15:25:18.337Z,101279.53
2018-09-14T15:27:48.840Z,101280.47
2018-09-14T15:30:19.273Z,101274.24
2018-09-14T15:32:49.769Z,101278.79
2018-09-14T15:35:20.312Z,101267.30
2018-09-14T15:37:51.143Z,101265.23
2018-09-14T15:40:22.117Z,101264.97
2018-09-14T15:42:52.668Z,101261.97
2018-09-14T15:45:23.049Z,101262.83
2018-09-14T15:47:59.743Z,101258.18
2018-09-14T15:50:30.218Z,101257.08
2018-09-14T15:53:00.643Z,101254.22
2018-09-14T15:55:30.939Z,101262.39
2018-09-14T15:58:01.353Z,101262.61
2018-09-14T16:00:31.929Z,101256.31
2018-09-14T16:03:02.332Z,101255.08
2018-09-14T16:05:32.808Z,101248.98
2018-09-14T16:08:03.317Z,101257.70
2018-09-14T16:10:33.764Z,101254.00
2018-09-14T16:13:04.258Z,101250.28
2018-09-14T16:15:34.711Z,101248.97
2018-09-14T16:18:05.154Z,101248.50
2018-09-14T16:20:35.613Z,101253.48
2018-09-14T16:23:05.983Z,101258.05
2018-09-14T16:25:36.408Z,101257.22
2018-09-14T16:28:06.950Z,101253.36
2018-09-14T16:30:37.200Z,101254.28
2018-09-14T16:33:07.760Z,101256.28
2018-09-14T16:35:38.121Z,101252.27
2018-09-14T16:38:08.665Z,101251.99
2018-09-14T16:40:39.291Z,101253.33
2018-09-14T16:43:09.850Z,101255.25
2018-09-14T16:45:40.122Z,101256.17
2018-09-14T16:48:10.592Z,101254.71
2018-09-14T16:50:40.957Z,101253.88
2018-09-14T16:53:11.240Z,101254.50
2018-09-14T16:55:41.449Z,101261.11
2018-09-14T16:58:11.876Z,101255.48
2018-09-14T17:00:42.272Z,101252.94
2018-09-14T17:03:12.647Z,101251.81
2018-09-14T17:05:43.144Z,101256.11
2018-09-14T17:08:13.538Z,101254.41
2018-09-14T17:10:43.866Z,101252.62
2018-09-14T17:13:14.274Z,101260.50
2018-09-14T17:15:44.950Z,101256.97
2018-09-14T17:18:15.377Z,101255.33
2018-09-14T17:20:46.037Z,101255.98
2018-09-14T17:23:16.548Z,101265.55
2018-09-14T17:25:47.075Z,101255.46
2018-09-14T17:28:17.309Z,101256.47
2018-09-14T17:30:47.704Z,101261.19
2018-09-14T17:33:18.201Z,101259.64
2018-09-14T17:35:48.800Z,101261.42
2018-09-14T17:38:19.427Z,101267.06
2018-09-14T17:40:50.467Z,101270.05
2018-09-14T17:43:21.074Z,101269.31
2018-09-14T17:45:52.043Z,101271.56
2018-09-14T17:48:22.585Z,101262.52
2018-09-14T17:50:53.331Z,101261.95
2018-09-14T17:53:23.739Z,101264.84
2018-09-14T17:55:54.139Z,101267.81
2018-09-14T17:58:24.579Z,101274.80
2018-09-14T18:00:55.044Z,101278.00
2018-09-14T18:03:25.411Z,101273.78
2018-09-14T18:05:55.841Z,101276.94
2018-09-14T18:11:05.066Z,101276.36
2018-09-14T18:13:35.616Z,101272.62
2018-09-14T18:16:05.950Z,101279.06
2018-09-14T18:18:36.375Z,101281.92
2018-09-14T18:24:07.775Z,101280.74
2018-09-14T18:26:38.243Z,101282.59
2018-09-14T18:29:08.450Z,101288.54
2018-09-14T18:31:38.927Z,101288.46
2018-09-14T18:34:09.427Z,101292.11
2018-09-14T18:36:39.779Z,101289.27
2018-09-14T18:39:12.651Z,101289.11
2018-09-14T18:41:43.800Z,101284.87
2018-09-14T18:44:14.088Z,101291.01
2018-09-14T18:46:44.663Z,101291.75
2018-09-14T18:49:15.048Z,101291.23
2018-09-14T18:51:45.600Z,101297.99
2018-09-14T18:54:16.193Z,101300.56
2018-09-14T18:56:46.573Z,101306.87
2018-09-14T18:59:16.932Z,101306.66
2018-09-14T19:01:47.720Z,101307.35
2018-09-14T19:04:18.132Z,101303.00
2018-09-14T19:07:11.313Z,101303.09
2018-09-14T19:09:41.685Z,101305.26
2018-09-14T19:12:11.950Z,101304.17
2018-09-14T19:14:42.460Z,101307.34
2018-09-14T19:17:12.970Z,101305.27
2018-09-14T19:19:43.617Z,101302.59
2018-09-14T19:22:14.109Z,101304.20
2018-09-14T19:24:44.521Z,101303.84
2018-09-14T19:27:14.971Z,101300.43
2018-09-14T19:29:45.423Z,101303.48
2018-09-14T19:32:15.914Z,101307.00
2018-09-14T19:34:46.352Z,101305.59
2018-09-14T19:37:16.691Z,101313.06
2018-09-14T19:39:47.154Z,101310.67
2018-09-14T19:42:17.624Z,101311.19
2018-09-14T19:44:48.013Z,101313.44
2018-09-14T19:47:18.576Z,101310.72
2018-09-14T19:50:11.656Z,101315.80
2018-09-14T19:52:42.116Z,101306.73
2018-09-14T19:55:12.592Z,101306.22
2018-09-14T19:57:43.188Z,101309.94
2018-09-14T20:00:13.596Z,101303.58
2018-09-14T20:02:43.977Z,101303.73
2018-09-14T20:05:14.981Z,101298.84
2018-09-14T20:07:45.700Z,101301.05
2018-09-14T20:10:17.065Z,101296.08
2018-09-14T20:12:47.528Z,101299.52
2018-09-14T20:15:18.028Z,101292.38
2018-09-14T20:17:48.528Z,101297.34
2018-09-14T20:20:18.863Z,101298.88
2018-09-14T20:22:49.945Z,101287.91
2018-09-14T20:25:20.235Z,101284.16
2018-09-14T20:27:50.611Z,101282.15
2018-09-14T20:33:21.480Z,101287.44
2018-09-14T20:35:55.233Z,101284.16
2018-09-14T20:38:25.659Z,101279.78
2018-09-14T20:40:56.181Z,101282.38
2018-09-14T20:43:26.735Z,101274.97
2018-09-14T20:45:57.587Z,101277.49
2018-09-14T20:48:28.140Z,101276.87
2018-09-14T20:50:58.732Z,101275.64
2018-09-14T20:53:29.142Z,101278.41
2018-09-14T20:55:59.562Z,101281.39
2018-09-14T20:58:30.213Z,101281.75
2018-09-14T21:01:00.708Z,101278.97
2018-09-14T21:03:31.117Z,101278.67
2018-09-14T21:06:01.564Z,101280.29
2018-09-14T21:08:32.023Z,101277.77
2018-09-14T21:11:02.383Z,101272.16
2018-09-14T21:13:32.848Z,101281.20
2018-09-14T21:16:03.155Z,101281.47
2018-09-14T21:18:33.607Z,101284.44
2018-09-14T21:21:04.079Z,101281.91
2018-09-14T21:23:35.154Z,101282.02
2018-09-14T21:26:05.927Z,101284.18
2018-09-14T21:28:36.427Z,101284.13
2018-09-14T21:31:06.886Z,101280.92
2018-09-14T21:33:37.782Z,101280.45
2018-09-14T21:36:08.176Z,101281.11
2018-09-14T21:38:38.771Z,101279.30
2018-09-14T21:41:09.118Z,101280.50
2018-09-14T21:43:39.494Z,101289.14
2018-09-14T21:46:09.856Z,101292.45
2018-09-14T21:48:40.316Z,101294.29
2018-09-14T21:51:10.349Z,101285.50
2018-09-14T21:53:40.458Z,101297.27
2018-09-14T21:56:10.981Z,101300.55
2018-09-14T21:58:41.416Z,101296.45
2018-09-14T22:01:15.685Z,101287.51
2018-09-14T22:03:46.249Z,101289.45
2018-09-14T22:06:17.121Z,101287.16
2018-09-14T22:08:47.516Z,101288.06
2018-09-14T22:11:18.084Z,101292.97
2018-09-14T22:13:48.841Z,101293.83
2018-09-14T22:16:19.311Z,101288.94
2018-09-14T22:18:49.726Z,101289.17
2018-09-14T22:21:20.225Z,101282.52
2018-09-14T22:23:50.790Z,101281.13
2018-09-14T22:26:21.277Z,101291.11
2018-09-14T22:28:51.887Z,101287.56
2018-09-14T22:31:22.236Z,101289.26
2018-09-14T22:33:52.610Z,101295.56
2018-09-14T22:36:23.067Z,101294.39
2018-09-14T22:38:53.744Z,101292.73
2018-09-14T22:41:24.043Z,101295.69
2018-09-14T22:43:54.400Z,101290.36
2018-09-14T22:46:24.896Z,101296.87
2018-09-14T22:48:55.364Z,101293.40
2018-09-14T22:51:25.990Z,101295.56
2018-09-14T22:53:56.501Z,101295.56
2018-09-14T22:56:26.828Z,101299.86
2018-09-14T22:58:57.260Z,101307.05
2018-09-14T23:01:27.812Z,101304.96
2018-09-14T23:03:58.315Z,101306.14
2018-09-14T23:06:28.786Z,101302.00
2018-09-14T23:12:00.466Z,101312.93
2018-09-14T23:14:30.915Z,101306.50
2018-09-14T23:17:01.420Z,101315.85
2018-09-14T23:19:32.020Z,101317.52
2018-09-14T23:22:02.617Z,101323.94
2018-09-14T23:24:33.191Z,101319.88
2018-09-14T23:27:03.722Z,101320.27
2018-09-14T23:29:34.040Z,101330.88
2018-09-14T23:32:04.863Z,101328.70
2018-09-14T23:34:35.313Z,101335.41
2018-09-14T23:37:05.855Z,101330.95
2018-09-14T23:39:36.279Z,101332.81
2018-09-14T23:42:06.635Z,101329.94
2018-09-14T23:44:36.819Z,101322.87
2018-09-14T23:47:07.607Z,101323.58
2018-09-14T23:49:37.972Z,101315.81
2018-09-14T23:52:08.465Z,101314.73
2018-09-14T23:54:38.915Z,101324.83
2018-09-14T23:57:09.159Z,101319.72
2018-09-14T23:59:39.656Z,101311.19
